Time;durP1;ratioP1;P1;durP2;ratioP2;P2;SDS_P1;SDS_P2;PMS_P1;PMS_P2;Temp;Humidity;BMP_temperature;BMP_pressure;BME280_temperature;BME280_humidity;BME280_pressure;Samples;Min_cycle;Max_cycle;Signal;HPM_P1;HPM_P2
2022/10/10 00:01:06;;;;;;;0.10;0.10;;;;;;;6.43;100.00;96607.00;5042265;28;20041;-76
2022/10/10 00:03:52;;;;;;;0.10;0.10;;;;;;;6.39;100.00;96606.63;5047854;28;20409;-73
2022/10/10 00:06:38;;;;;;;0.10;0.10;;;;;;;6.31;100.00;96609.56;5044280;28;20068;-75
2022/10/10 00:09:24;;;;;;;0.10;0.10;;;;;;;6.29;100.00;96606.28;5047735;28;20772;-73
2022/10/10 00:12:10;;;;;;;0.10;0.10;;;;;;;6.38;100.00;96609.47;5048957;28;20145;-74
2022/10/10 00:14:56;;;;;;;0.10;0.10;;;;;;;6.40;100.00;96607.44;5048782;28;20272;-73
2022/10/10 00:17:42;;;;;;;0.10;0.10;;;;;;;6.38;100.00;96614.78;5047594;28;20564;-71
2022/10/10 00:20:28;;;;;;;0.10;0.10;;;;;;;6.35;100.00;96612.59;5047175;28;20044;-71
2022/10/10 00:23:14;;;;;;;0.10;0.10;;;;;;;6.27;100.00;96600.38;5045533;28;20048;-73
2022/10/10 00:26:00;;;;;;;0.10;0.10;;;;;;;6.23;100.00;96591.22;5045424;28;20560;-72
2022/10/10 00:28:46;;;;;;;0.10;0.10;;;;;;;6.23;100.00;96601.06;5048972;28;20597;-73
2022/10/10 00:31:32;;;;;;;0.10;0.10;;;;;;;6.23;100.00;96596.53;5036275;28;20055;-73
2022/10/10 00:34:18;;;;;;;0.10;0.10;;;;;;;6.25;100.00;96598.97;5048126;28;20076;-71
2022/10/10 00:37:04;;;;;;;0.20;0.10;;;;;;;6.19;100.00;96599.84;5048248;28;20041;-72
2022/10/10 00:39:50;;;;;;;0.10;0.10;;;;;;;6.18;100.00;96598.22;5046861;28;20064;-72
2022/10/10 00:42:36;;;;;;;0.10;0.10;;;;;;;6.12;100.00;96590.06;5049334;28;20416;-73
2022/10/10 00:45:30;;;;;;;0.10;0.10;;;;;;;6.15;100.00;96580.88;5049697;28;20099;-71
2022/10/10 00:48:23;;;;;;;0.10;0.10;;;;;;;6.11;100.00;96584.97;5045944;28;20288;-72
2022/10/10 00:51:15;;;;;;;0.10;0.10;;;;;;;6.08;100.00;96578.28;5045714;28;20079;-72
2022/10/10 00:54:05;;;;;;;0.10;0.10;;;;;;;6.05;100.00;96580.53;5050414;28;20697;-73
2022/10/10 00:57:04;;;;;;;0.10;0.10;;;;;;;6.05;100.00;96573.38;5045976;28;20044;-72
2022/10/10 00:59:52;;;;;;;0.00;0.00;;;;;;;6.03;100.00;96574.63;5046995;28;20544;-72
2022/10/10 01:02:38;;;;;;;0.10;0.10;;;;;;;6.02;100.00;96567.69;5047169;28;20040;-73
2022/10/10 01:05:24;;;;;;;0.10;0.10;;;;;;;6.06;100.00;96563.56;5045119;28;20087;-72
2022/10/10 01:08:10;;;;;;;0.60;0.10;;;;;;;5.99;100.00;96557.47;5045684;28;20041;-72
2022/10/10 01:11:14;;;;;;;0.10;0.10;;;;;;;6.03;100.00;96571.97;5045123;28;20037;-72
2022/10/10 01:14:23;;;;;;;0.10;0.10;;;;;;;6.00;100.00;96573.22;5036485;28;20496;-74
2022/10/10 01:17:15;;;;;;;0.10;0.10;;;;;;;5.98;100.00;96566.50;5042412;28;20039;-73
2022/10/10 01:20:33;;;;;;;0.10;0.10;;;;;;;5.93;100.00;96558.38;5047065;28;20399;-74
2022/10/10 01:23:54;;;;;;;0.10;0.10;;;;;;;5.83;100.00;96554.31;5045572;28;20444;-74
2022/10/10 01:27:07;;;;;;;0.10;0.10;;;;;;;5.79;100.00;96554.97;5042380;28;20517;-75
2022/10/10 01:30:01;;;;;;;0.10;0.10;;;;;;;5.84;100.00;96549.84;5044263;28;20047;-75
2022/10/10 01:32:55;;;;;;;0.10;0.10;;;;;;;5.86;100.00;96551.22;5045939;28;20139;-75
2022/10/10 01:36:10;;;;;;;0.10;0.10;;;;;;;5.94;100.00;96542.22;5046976;28;20136;-75
2022/10/10 01:39:07;;;;;;;0.10;0.10;;;;;;;5.95;100.00;96540.38;5048527;28;20052;-74
2022/10/10 01:42:10;;;;;;;0.10;0.10;;;;;;;5.93;100.00;96543.25;5044050;28;20575;-74
2022/10/10 01:44:56;;;;;;;0.10;0.10;;;;;;;5.93;100.00;96539.78;5031697;28;20426;-73
2022/10/10 01:47:42;;;;;;;0.10;0.10;;;;;;;5.94;100.00;96544.06;5046393;28;20045;-75
2022/10/10 01:50:31;;;;;;;0.10;0.10;;;;;;;5.97;100.00;96533.00;5047675;28;20476;-74
2022/10/10 01:53:35;;;;;;;0.10;0.10;;;;;;;5.97;100.00;96525.03;5048128;28;20701;-75
2022/10/10 01:56:46;;;;;;;0.10;0.10;;;;;;;5.98;100.00;96530.09;5037625;28;20040;-74
2022/10/10 01:59:41;;;;;;;0.10;0.10;;;;;;;6.00;100.00;96537.88;5047030;28;20116;-74
2022/10/10 02:02:38;;;;;;;0.10;0.10;;;;;;;5.96;100.00;96536.69;5046294;28;20818;-74
2022/10/10 02:05:33;;;;;;;0.10;0.10;;;;;;;5.99;100.00;96537.06;5046543;28;20052;-73
2022/10/10 02:08:33;;;;;;;0.10;0.10;;;;;;;6.00;100.00;96530.72;5033133;28;20043;-75
2022/10/10 02:11:19;;;;;;;0.10;0.10;;;;;;;6.06;100.00;96531.69;5047206;28;20059;-73
2022/10/10 02:14:18;;;;;;;0.10;0.10;;;;;;;6.03;100.00;96534.78;5047933;28;20350;-75
2022/10/10 02:17:09;;;;;;;0.10;0.10;;;;;;;6.01;100.00;96539.50;5041490;28;20289;-74
2022/10/10 02:19:57;;;;;;;0.10;0.10;;;;;;;5.85;100.00;96527.56;5045914;28;20602;-75
2022/10/10 02:22:44;;;;;;;0.10;0.10;;;;;;;5.79;100.00;96531.06;5046518;28;20474;-75
2022/10/10 02:25:35;;;;;;;0.15;0.10;;;;;;;5.70;100.00;96533.19;5046378;28;20036;-74
2022/10/10 02:28:34;;;;;;;0.10;0.10;;;;;;;5.63;100.00;96529.75;5044595;28;20043;-73
2022/10/10 02:31:32;;;;;;;0.10;0.10;;;;;;;5.60;100.00;96522.19;5043834;28;20040;-74
2022/10/10 02:34:22;;;;;;;0.10;0.10;;;;;;;5.56;100.00;96515.72;5036739;28;20548;-74
2022/10/10 02:37:11;;;;;;;0.10;0.10;;;;;;;5.52;100.00;96517.16;5044799;28;20041;-74
2022/10/10 02:40:01;;;;;;;0.10;0.10;;;;;;;5.52;100.00;96517.16;5045475;28;20647;-75
2022/10/10 02:42:50;;;;;;;0.10;0.10;;;;;;;5.51;100.00;96518.19;5045131;28;20233;-73
2022/10/10 02:45:37;;;;;;;0.10;0.10;;;;;;;5.51;100.00;96520.84;5045345;28;20239;-74
2022/10/10 02:48:23;;;;;;;0.10;0.10;;;;;;;5.48;100.00;96523.94;5028423;28;20427;-73
2022/10/10 02:51:11;;;;;;;0.10;0.10;;;;;;;5.43;100.00;96513.13;5044064;28;20540;-73
2022/10/10 02:53:57;;;;;;;0.10;0.10;;;;;;;5.40;100.00;96514.41;5046323;28;20501;-73
2022/10/10 02:56:43;;;;;;;0.10;0.10;;;;;;;5.45;100.00;96519.06;5044973;28;20811;-72
2022/10/10 02:59:28;;;;;;;0.10;0.10;;;;;;;5.46;100.00;96516.19;5047707;28;20163;-73
2022/10/10 03:02:14;;;;;;;0.10;0.10;;;;;;;5.46;100.00;96520.69;5044642;28;20044;-72
2022/10/10 03:05:00;;;;;;;0.10;0.10;;;;;;;5.39;100.00;96522.56;5014897;28;20360;-73
2022/10/10 03:07:47;;;;;;;0.10;0.10;;;;;;;5.37;100.00;96520.13;5045136;28;20046;-73
2022/10/10 03:10:33;;;;;;;0.10;0.10;;;;;;;5.31;100.00;96513.03;5043525;28;20090;-73
2022/10/10 03:13:18;;;;;;;0.20;0.20;;;;;;;5.31;100.00;96526.28;5045498;28;20055;-71
2022/10/10 03:16:05;;;;;;;0.10;0.10;;;;;;;5.31;100.00;96513.84;5043916;28;20040;-71
2022/10/10 03:18:51;;;;;;;0.10;0.10;;;;;;;5.28;100.00;96514.25;5043725;28;20086;-73
2022/10/10 03:21:37;;;;;;;0.10;0.10;;;;;;;5.25;100.00;96517.34;5043204;28;20349;-73
2022/10/10 03:24:23;;;;;;;0.10;0.10;;;;;;;5.29;100.00;96518.56;5045659;28;20067;-72
2022/10/10 03:27:09;;;;;;;0.10;0.10;;;;;;;5.36;100.00;96517.69;5043831;28;20426;-72
2022/10/10 03:29:55;;;;;;;0.10;0.10;;;;;;;5.41;100.00;96515.22;5043290;28;20036;-72
2022/10/10 03:32:41;;;;;;;0.10;0.10;;;;;;;5.27;100.00;96507.31;5045734;28;20515;-73
2022/10/10 03:35:27;;;;;;;0.10;0.10;;;;;;;5.31;100.00;96523.66;5041198;28;20052;-72
2022/10/10 03:38:13;;;;;;;0.10;0.10;;;;;;;5.26;100.00;96518.16;5027434;28;20163;-72
2022/10/10 03:40:59;;;;;;;0.10;0.10;;;;;;;5.29;100.00;96515.91;5029438;28;20481;-73
2022/10/10 03:43:45;;;;;;;0.10;0.10;;;;;;;5.38;100.00;96520.94;5041316;28;20404;-73
2022/10/10 03:46:31;;;;;;;0.10;0.10;;;;;;;5.36;100.00;96517.69;5040400;28;20114;-72
2022/10/10 03:49:17;;;;;;;0.10;0.10;;;;;;;5.29;100.00;96521.22;5043794;28;20500;-71
2022/10/10 03:52:03;;;;;;;0.10;0.10;;;;;;;5.26;100.00;96521.63;5043609;28;20492;-71
2022/10/10 03:54:49;;;;;;;0.10;0.10;;;;;;;5.34;100.00;96525.84;5033859;28;20043;-73
2022/10/10 03:57:35;;;;;;;0.10;0.10;;;;;;;5.27;100.00;96530.38;5043170;28;20049;-73
2022/10/10 04:00:21;;;;;;;0.10;0.10;;;;;;;5.29;100.00;96529.16;5042185;28;20140;-72
2022/10/10 04:03:08;;;;;;;0.10;0.10;;;;;;;5.23;100.00;96524.72;5043592;28;20045;-73
2022/10/10 04:05:54;;;;;;;0.10;0.10;;;;;;;5.25;100.00;96527.94;5045394;28;20556;-72
2022/10/10 04:08:40;;;;;;;0.10;0.10;;;;;;;5.16;100.00;96526.59;5044764;28;20542;-73
2022/10/10 04:11:26;;;;;;;0.17;0.10;;;;;;;5.17;100.00;96528.19;5041721;28;20049;-74
2022/10/10 04:14:12;;;;;;;0.10;0.10;;;;;;;5.14;100.00;96522.53;5046620;28;20126;-74
2022/10/10 04:16:57;;;;;;;0.10;0.10;;;;;;;5.08;100.00;96523.38;5044098;28;20106;-75
2022/10/10 04:19:43;;;;;;;0.10;0.10;;;;;;;5.13;100.00;96524.34;5044763;28;20037;-74
2022/10/10 04:22:29;;;;;;;0.10;0.10;;;;;;;5.24;100.00;96531.63;5045985;28;20045;-75
2022/10/10 04:25:15;;;;;;;0.10;0.10;;;;;;;5.25;100.00;96530.59;5015535;28;20714;-73
2022/10/10 04:28:01;;;;;;;0.10;0.10;;;;;;;5.27;100.00;96531.19;5043954;28;20139;-74
2022/10/10 04:30:47;;;;;;;0.10;0.10;;;;;;;5.31;100.00;96523.66;5026678;28;20076;-75
2022/10/10 04:33:33;;;;;;;0.10;0.10;;;;;;;5.34;100.00;96533.00;5045374;28;20561;-74
2022/10/10 04:36:19;;;;;;;0.10;0.10;;;;;;;5.41;100.00;96517.84;5046472;28;20190;-73
2022/10/10 04:39:05;;;;;;;0.10;0.10;;;;;;;5.49;100.00;96528.22;5031735;28;20051;-76
2022/10/10 04:41:51;;;;;;;0.10;0.10;;;;;;;5.44;100.00;96523.53;5044155;28;20086;-74
2022/10/10 04:44:37;;;;;;;0.10;0.10;;;;;;;5.41;100.00;96534.59;5045319;28;20097;-73
2022/10/10 04:47:22;;;;;;;0.10;0.10;;;;;;;5.41;100.00;96523.16;5043609;28;20412;-73
2022/10/10 04:50:08;;;;;;;0.10;0.10;;;;;;;5.38;100.00;96528.91;5046197;28;20384;-72
2022/10/10 04:52:54;;;;;;;0.10;0.10;;;;;;;5.36;100.00;96528.28;5043728;28;20068;-72
2022/10/10 04:55:40;;;;;;;0.10;0.10;;;;;;;5.33;100.00;96532.19;5046992;28;20543;-73
2022/10/10 04:58:26;;;;;;;0.17;0.17;;;;;;;5.29;100.00;96531.81;5034761;28;20420;-71
2022/10/10 05:01:12;;;;;;;0.10;0.10;;;;;;;5.27;100.00;96523.25;5045692;28;20052;-72
2022/10/10 05:03:58;;;;;;;0.10;0.10;;;;;;;5.36;100.00;96517.69;5049435;28;20333;-73
2022/10/10 05:06:44;;;;;;;0.10;0.10;;;;;;;5.49;100.00;96525.56;5049654;28;20045;-72
2022/10/10 05:09:32;;;;;;;0.10;0.10;;;;;;;5.42;100.00;96522.13;5049327;28;20033;-71
2022/10/10 05:12:18;;;;;;;0.10;0.10;;;;;;;5.37;100.00;96527.25;5049153;28;20076;-73
2022/10/10 05:15:05;;;;;;;0.20;0.20;;;;;;;5.26;100.00;96521.63;5047620;28;20052;-73
2022/10/10 05:17:51;;;;;;;0.10;0.10;;;;;;;5.22;100.00;96512.47;5047584;28;20488;-73
2022/10/10 05:20:37;;;;;;;0.10;0.10;;;;;;;5.18;100.00;96516.56;5047085;28;20123;-74
2022/10/10 05:23:23;;;;;;;0.10;0.10;;;;;;;5.20;100.00;96513.69;5049259;28;20048;-73
2022/10/10 05:26:09;;;;;;;0.22;0.10;;;;;;;5.19;100.00;96507.56;5047309;28;20037;-74
2022/10/10 05:28:55;;;;;;;0.20;0.10;;;;;;;5.16;100.00;96510.66;5046970;28;20329;-72
2022/10/10 05:31:41;;;;;;;0.10;0.10;;;;;;;5.14;100.00;96511.91;5021316;28;20037;-74
2022/10/10 05:34:27;;;;;;;0.10;0.10;;;;;;;5.21;100.00;96520.63;5048033;28;20131;-72
2022/10/10 05:37:13;;;;;;;0.10;0.10;;;;;;;5.21;100.00;96518.81;5046772;28;20518;-72
2022/10/10 05:39:59;;;;;;;0.10;0.10;;;;;;;5.16;100.00;96529.22;5047470;28;20582;-74
2022/10/10 05:42:45;;;;;;;0.15;0.15;;;;;;;5.16;100.00;96531.06;5036742;28;20523;-72
2022/10/10 05:45:33;;;;;;;0.10;0.10;;;;;;;5.14;100.00;96536.59;5047142;28;20285;-72
2022/10/10 05:48:19;;;;;;;0.10;0.10;;;;;;;5.15;100.00;96532.09;5049635;28;20340;-72
2022/10/10 05:51:06;;;;;;;0.10;0.10;;;;;;;5.11;100.00;96530.88;5047335;28;20040;-72
2022/10/10 05:53:52;;;;;;;0.10;0.10;;;;;;;5.15;100.00;96532.91;5051265;28;20075;-73
2022/10/10 05:56:38;;;;;;;0.10;0.10;;;;;;;5.19;100.00;96546.56;5045905;28;20049;-73
2022/10/10 05:59:24;;;;;;;0.10;0.10;;;;;;;5.20;100.00;96537.56;5048444;28;20037;-73
2022/10/10 06:02:12;;;;;;;0.10;0.10;;;;;;;5.20;100.00;96543.69;5045552;28;20175;-73
2022/10/10 06:04:58;;;;;;;0.10;0.10;;;;;;;5.21;100.00;96539.19;5045256;28;20324;-74
2022/10/10 06:07:44;;;;;;;0.10;0.10;;;;;;;5.36;100.00;96552.19;5047905;28;20201;-72
2022/10/10 06:10:33;;;;;;;0.10;0.10;;;;;;;5.40;100.00;96542.78;5045300;28;20094;-73
2022/10/10 06:13:19;;;;;;;0.10;0.10;;;;;;;5.38;100.00;96548.31;5048287;28;20251;-74
2022/10/10 06:16:05;;;;;;;0.10;0.10;;;;;;;5.40;100.00;96543.59;5049137;28;20040;-75
2022/10/10 06:18:51;;;;;;;0.10;0.10;;;;;;;5.41;100.00;96545.22;5046743;28;20049;-74
2022/10/10 06:21:37;;;;;;;0.10;0.10;;;;;;;5.44;100.00;96551.91;5030240;28;20127;-74
2022/10/10 06:24:23;;;;;;;0.10;0.10;;;;;;;5.44;100.00;96551.91;5031381;28;20049;-74
2022/10/10 06:27:09;;;;;;;0.10;0.10;;;;;;;5.48;100.00;96556.59;5016464;28;20516;-73
2022/10/10 06:29:54;;;;;;;0.10;0.10;;;;;;;5.54;100.00;96547.78;5028123;28;20045;-75
2022/10/10 06:32:40;;;;;;;0.10;0.10;;;;;;;5.63;100.00;96558.16;5027907;28;20615;-75
2022/10/10 06:35:26;;;;;;;0.10;0.10;;;;;;;5.70;100.00;96553.59;5026211;28;20060;-74
2022/10/10 06:38:14;;;;;;;0.22;0.20;;;;;;;5.77;100.00;96555.19;5029017;28;20084;-73
2022/10/10 06:41:04;;;;;;;0.10;0.10;;;;;;;5.89;100.00;96555.28;5027301;28;20134;-75
2022/10/10 06:43:50;;;;;;;0.10;0.10;;;;;;;5.97;100.00;96559.56;5029062;28;20041;-74
2022/10/10 06:46:36;;;;;;;0.10;0.10;;;;;;;6.03;100.00;96558.69;5029328;28;20036;-75
2022/10/10 06:49:22;;;;;;;0.10;0.10;;;;;;;6.12;100.00;96557.38;5030361;28;20343;-74
2022/10/10 06:52:08;;;;;;;0.10;0.10;;;;;;;6.22;100.00;96562.19;5029779;28;20072;-74
2022/10/10 06:54:54;;;;;;;0.10;0.10;;;;;;;6.33;100.00;96564.16;5029426;28;20489;-74
2022/10/10 06:57:39;;;;;;;0.10;0.10;;;;;;;6.36;100.00;96555.72;5027884;28;20073;-75
2022/10/10 07:00:25;;;;;;;0.10;0.10;;;;;;;6.50;100.00;96564.41;5025607;28;20041;-74
2022/10/10 07:03:11;;;;;;;0.10;0.10;;;;;;;6.55;100.00;96568.03;5024970;28;20160;-74
2022/10/10 07:05:59;;;;;;;0.10;0.10;;;;;;;6.57;100.00;96560.63;5023963;28;20036;-75
2022/10/10 07:08:45;;;;;;;0.17;0.10;;;;;;;6.66;100.00;96563.81;5029216;28;20508;-74
2022/10/10 07:11:33;;;;;;;0.10;0.10;;;;;;;6.76;100.00;96564.09;5026100;28;20045;-74
2022/10/10 07:14:19;;;;;;;0.10;0.10;;;;;;;6.82;100.00;96573.88;5014898;28;20565;-74
2022/10/10 07:17:04;;;;;;;0.10;0.10;;;;;;;6.90;100.00;96568.25;5025631;28;20042;-74
2022/10/10 07:19:50;;;;;;;0.10;0.10;;;;;;;6.91;100.00;96569.88;5031682;28;20033;-76
2022/10/10 07:22:36;;;;;;;0.10;0.10;;;;;;;7.01;100.00;96576.53;5044647;28;20507;-76
2022/10/10 07:25:22;;;;;;;0.20;0.20;;;;;;;7.14;100.00;96565.72;5046090;28;20539;-74
2022/10/10 07:28:08;;;;;;;0.10;0.10;;;;;;;7.25;100.00;96575.63;5045784;28;20705;-75
2022/10/10 07:30:59;;;;;;;0.10;0.10;;;;;;;7.32;100.00;96571.03;5043491;28;20211;-73
2022/10/10 07:33:47;;;;;;;0.10;0.10;;;;;;;7.40;100.00;96570.72;5047788;28;20101;-73
2022/10/10 07:36:34;;;;;;;0.10;0.10;;;;;;;7.53;100.00;96553.72;5046508;28;20044;-73
2022/10/10 07:39:24;;;;;;;0.10;0.10;;;;;;;7.70;100.00;96564.53;5044131;28;20449;-75
2022/10/10 07:42:10;;;;;;;0.10;0.10;;;;;;;7.81;100.00;96563.78;5033134;28;20041;-74
2022/10/10 07:44:56;;;;;;;0.38;0.10;;;;;;;8.02;100.00;96570.44;5043117;28;20056;-74
2022/10/10 07:47:42;;;;;;;0.10;0.10;;;;;;;8.14;100.00;96573.09;5046597;28;20040;-75
2022/10/10 07:50:27;;;;;;;0.10;0.10;;;;;;;8.22;100.00;96567.44;5044318;28;20409;-75
2022/10/10 07:53:13;;;;;;;0.10;0.10;;;;;;;8.32;100.00;96568.47;5047430;28;20996;-74
2022/10/10 07:55:59;;;;;;;0.10;0.10;;;;;;;8.45;100.00;96562.13;5044862;28;20483;-75
2022/10/10 07:58:45;;;;;;;0.10;0.10;;;;;;;8.47;100.00;96557.38;5047125;28;20466;-73
2022/10/10 08:01:33;;;;;;;0.17;0.10;;;;;;;8.49;100.00;96562.50;5029335;28;20037;-75
2022/10/10 08:04:19;;;;;;;0.10;0.10;;;;;;;8.56;100.00;96568.50;5044715;28;20544;-74
2022/10/10 08:07:06;;;;;;;0.10;0.10;;;;;;;8.58;100.00;96567.25;5041722;28;20041;-74
2022/10/10 08:09:52;;;;;;;0.13;0.10;;;;;;;8.61;100.00;96569.44;5046043;28;20402;-75
2022/10/10 08:12:38;;;;;;;0.20;0.15;;;;;;;8.72;100.00;96561.69;5036372;28;20047;-75
2022/10/10 08:15:23;;;;;;;0.10;0.10;;;;;;;8.88;100.00;96566.28;5048723;28;20048;-73
2022/10/10 08:18:09;;;;;;;0.10;0.10;;;;;;;8.91;100.00;96563.13;5045646;28;20036;-74
2022/10/10 08:21:00;;;;;;;0.10;0.10;;;;;;;9.04;100.00;96562.09;5046648;28;20134;-75
2022/10/10 08:23:46;;;;;;;0.10;0.10;;;;;;;9.15;100.00;96567.38;5046308;28;20044;-75
2022/10/10 08:26:32;;;;;;;0.10;0.10;;;;;;;9.26;100.00;96557.72;5048018;28;20496;-75
2022/10/10 08:29:18;;;;;;;0.20;0.20;;;;;;;9.41;100.00;96559.84;5031965;28;20055;-73
2022/10/10 08:32:03;;;;;;;0.10;0.10;;;;;;;9.55;100.00;96563.06;5047840;28;20052;-73
2022/10/10 08:34:49;;;;;;;0.13;0.10;;;;;;;9.68;100.00;96549.41;5049445;28;20037;-75
2022/10/10 08:37:35;;;;;;;0.10;0.10;;;;;;;9.84;100.00;96558.50;5051196;28;20116;-75
2022/10/10 08:40:27;;;;;;;0.10;0.10;;;;;;;9.95;100.00;96561.09;5046378;28;20643;-75
2022/10/10 08:43:32;;;;;;;0.10;0.10;;;;;;;10.06;100.00;96567.44;5047137;28;20032;-74
2022/10/10 08:46:37;;;;;;;0.20;0.20;;;;;;;10.26;100.00;96569.66;5037243;28;20043;-75
2022/10/10 08:49:33;;;;;;;0.10;0.10;;;;;;;10.35;100.00;96578.91;5048461;28;20524;-74
2022/10/10 08:52:37;;;;;;;0.10;0.10;;;;;;;10.38;100.00;96580.28;5046193;28;20041;-73
2022/10/10 08:55:31;;;;;;;0.10;0.10;;;;;;;10.65;100.00;96570.50;5047895;28;20086;-74
2022/10/10 08:58:26;;;;;;;0.10;0.10;;;;;;;10.71;100.00;96576.75;5044888;28;20071;-75
2022/10/10 09:01:18;;;;;;;0.10;0.10;;;;;;;10.89;100.00;96584.50;5041606;28;20049;-76
2022/10/10 09:04:05;;;;;;;;;;;;;;;11.17;100.00;96578.16;5049734;28;20056;-75
2022/10/10 09:07:00;;;;;;;0.10;0.10;;;;;;;11.37;100.00;96570.38;5044342;28;19924;-74
2022/10/10 09:10:02;;;;;;;0.10;0.10;;;;;;;11.68;100.00;96568.03;5050035;28;20041;-75
2022/10/10 09:13:15;;;;;;;0.10;0.10;;;;;;;11.91;100.00;96567.78;5048731;28;20505;-76
2022/10/10 09:16:33;;;;;;;0.25;0.20;;;;;;;12.27;100.00;96560.00;5047505;28;20357;-74
2022/10/10 09:19:41;;;;;;;0.10;0.10;;;;;;;12.50;100.00;96565.03;5043395;28;20035;-75
2022/10/10 09:22:32;;;;;;;0.10;0.10;;;;;;;13.09;100.00;96570.22;5049185;28;20048;-73
2022/10/10 09:25:26;;;;;;;0.22;0.20;;;;;;;13.38;100.00;96567.13;5048768;28;20110;-74
2022/10/10 09:28:34;;;;;;;0.10;0.10;;;;;;;13.45;100.00;96564.19;5046270;28;20342;-73
2022/10/10 09:31:23;;;;;;;0.10;0.10;;;;;;;13.43;100.00;96569.84;5046970;28;20152;-73
2022/10/10 09:34:18;;;;;;;0.17;0.10;;;;;;;13.61;100.00;96557.78;5050467;28;20076;-74
2022/10/10 09:37:12;;;;;;;0.20;0.20;;;;;;;13.62;100.00;96554.88;5048607;28;20047;-73
2022/10/10 09:40:21;;;;;;;0.22;0.20;;;;;;;14.00;100.00;96558.13;5047096;28;20156;-75
2022/10/10 09:43:14;;;;;;;0.10;0.10;;;;;;;14.07;100.00;96555.97;5046679;28;20044;-75
2022/10/10 09:46:00;;;;;;;0.10;0.10;;;;;;;14.65;100.00;96570.00;5046326;28;20314;-75
2022/10/10 09:48:46;;;;;;;0.10;0.10;;;;;;;14.74;100.00;96571.06;5047755;28;20040;-73
2022/10/10 09:51:33;;;;;;;0.10;0.10;;;;;;;15.63;100.00;96573.22;5048151;28;20279;-73
2022/10/10 09:54:20;;;;;;;0.20;0.20;;;;;;;16.59;100.00;96567.19;5035574;28;20048;-74
2022/10/10 09:57:12;;;;;;;0.10;0.10;;;;;;;18.23;100.00;96566.06;5036986;28;20459;-75
2022/10/10 10:00:18;;;;;;;0.22;0.10;;;;;;;19.71;99.16;96566.94;5006563;28;20044;-75
2022/10/10 10:03:19;;;;;;;0.20;0.20;;;;;;;21.68;84.41;96548.66;5047420;28;20083;-74
2022/10/10 10:06:05;;;;;;;0.20;0.20;;;;;;;21.76;82.63;96542.41;5045574;28;20068;-75
2022/10/10 10:08:52;;;;;;;0.15;0.15;;;;;;;23.40;73.83;96537.88;5049595;28;20064;-74
2022/10/10 10:11:38;;;;;;;0.10;0.10;;;;;;;23.46;72.14;96545.56;5033483;28;20382;-76
2022/10/10 10:14:33;;;;;;;0.10;0.10;;;;;;;24.66;59.05;96542.28;5048885;28;20083;-74
2022/10/10 10:17:22;;;;;;;0.30;0.28;;;;;;;25.83;56.10;96538.00;5050000;28;20136;-74
2022/10/10 10:20:32;;;;;;;0.20;0.20;;;;;;;28.05;42.56;96533.72;5044133;28;20124;-76
2022/10/10 10:23:31;;;;;;;0.20;0.20;;;;;;;27.02;42.19;96544.94;5047946;28;20410;-76
2022/10/10 10:26:42;;;;;;;0.20;0.20;;;;;;;26.99;43.30;96542.88;5045865;28;20036;-75
2022/10/10 10:29:31;;;;;;;0.10;0.10;;;;;;;25.81;54.22;96543.03;5045164;28;20041;-74
2022/10/10 10:32:52;;;;;;;0.20;0.20;;;;;;;25.06;55.43;96547.22;5042765;28;20067;-72
2022/10/10 10:35:42;;;;;;;0.17;0.10;;;;;;;24.88;62.95;96541.91;5041553;28;20089;-75
2022/10/10 10:38:36;;;;;;;0.28;0.22;;;;;;;25.64;53.57;96540.53;5051478;28;20125;-74
2022/10/10 10:41:37;;;;;;;0.20;0.20;;;;;;;28.50;42.63;96526.81;5046199;28;20191;-75
2022/10/10 10:44:34;;;;;;;0.20;0.20;;;;;;;25.68;45.09;96541.44;4352239;28;10000423;-74
2022/10/10 10:47:32;;;;;;;0.15;0.15;;;;;;;25.40;49.56;96551.50;5042923;28;20102;-76
2022/10/10 10:50:30;;;;;;;0.10;0.10;;;;;;;27.30;42.44;96542.91;5047004;28;20036;-76
2022/10/10 10:53:23;;;;;;;0.10;0.10;;;;;;;27.66;45.57;96547.34;5045398;28;20508;-74
2022/10/10 10:56:30;;;;;;;0.10;0.10;;;;;;;29.66;36.04;96537.59;5043081;28;20512;-76
2022/10/10 10:59:35;;;;;;;0.10;0.10;;;;;;;27.10;39.82;96546.75;5032337;28;20053;-76
2022/10/10 11:02:51;;;;;;;0.15;0.15;;;;;;;29.69;35.22;96531.31;5043265;28;20561;-77
2022/10/10 11:05:42;;;;;;;0.10;0.10;;;;;;;29.60;32.34;96545.38;5049170;28;20443;-76
2022/10/10 11:08:59;;;;;;;0.10;0.10;;;;;;;31.12;32.19;96542.22;5048102;28;20526;-75
2022/10/10 11:12:01;;;;;;;0.10;0.10;;;;;;;29.44;33.16;96552.16;5045816;28;20620;-75
2022/10/10 11:14:53;;;;;;;0.10;0.10;;;;;;;25.78;44.21;96556.66;5029405;28;20539;-74
2022/10/10 11:17:46;;;;;;;0.10;0.10;;;;;;;27.61;39.25;96553.09;5043642;28;20392;-76
2022/10/10 11:20:45;;;;;;;0.10;0.10;;;;;;;29.53;33.83;96544.47;5043774;28;20048;-75
2022/10/10 11:24:06;;;;;;;0.10;0.10;;;;;;;27.91;36.22;96545.19;5034531;28;20505;-74
2022/10/10 11:26:58;;;;;;;0.10;0.10;;;;;;;30.11;32.83;96546.91;5043980;28;20117;-74
2022/10/10 11:30:13;;;;;;;0.10;0.10;;;;;;;30.62;29.21;96554.66;5042759;28;20040;-74
2022/10/10 11:33:08;;;;;;;0.10;0.10;;;;;;;31.34;29.48;96555.09;4992805;28;20045;-76
2022/10/10 11:36:00;;;;;;;0.10;0.10;;;;;;;32.65;27.96;96545.28;5042871;28;20036;-74
2022/10/10 11:39:09;;;;;;;0.10;0.10;;;;;;;32.62;26.37;96544.09;5046578;28;20489;-75
2022/10/10 11:42:02;;;;;;;0.10;0.10;;;;;;;32.04;26.74;96550.50;5040262;28;20155;-74
2022/10/10 11:45:24;;;;;;;0.10;0.10;;;;;;;30.59;28.13;96550.72;5047469;28;20040;-75
2022/10/10 11:48:34;;;;;;;0.10;0.10;;;;;;;31.14;29.24;96545.41;5041293;28;20543;-75
2022/10/10 11:51:36;;;;;;;0.20;0.10;;;;;;;31.91;28.93;96546.50;5044979;28;20040;-76
2022/10/10 11:54:46;;;;;;;0.10;0.10;;;;;;;31.92;27.14;96550.84;5042823;28;20140;-75
2022/10/10 11:58:03;;;;;;;0.10;0.10;;;;;;;30.33;28.78;96559.03;5033281;28;20040;-75
2022/10/10 12:00:54;;;;;;;0.10;0.10;;;;;;;31.90;28.94;96555.94;5042025;28;20428;-75
2022/10/10 12:03:40;;;;;;;0.10;0.10;;;;;;;31.72;28.05;96555.00;5047243;28;20044;-75
2022/10/10 12:06:33;;;;;;;0.10;0.10;;;;;;;30.94;28.22;96555.84;5049154;28;20047;-75
2022/10/10 12:09:28;;;;;;;0.10;0.10;;;;;;;31.76;27.52;96556.63;5045027;28;20382;-74
2022/10/10 12:12:20;;;;;;;0.10;0.10;;;;;;;33.22;26.43;96548.22;5048526;28;20040;-77
2022/10/10 12:15:09;;;;;;;0.10;0.10;;;;;;;34.18;26.19;96547.44;5047929;28;20043;-75
2022/10/10 12:17:55;;;;;;;0.00;0.00;;;;;;;34.15;25.32;96534.34;5050202;28;20037;-72
2022/10/10 12:20:41;;;;;;;0.00;0.00;;;;;;;34.18;25.70;96547.44;5035686;28;20043;-76
2022/10/10 12:23:29;;;;;;;0.08;0.08;;;;;;;34.94;24.13;96545.97;5047922;28;20040;-74
2022/10/10 12:26:19;;;;;;;0.10;0.10;;;;;;;35.49;22.53;96551.63;5049054;28;20290;-75
2022/10/10 12:29:09;;;;;;;0.10;0.10;;;;;;;36.58;22.83;96545.41;5048883;28;20044;-74
2022/10/10 12:32:12;;;;;;;0.10;0.10;;;;;;;36.09;22.08;96549.50;5047927;28;20508;-74
2022/10/10 12:34:59;;;;;;;0.10;0.10;;;;;;;35.41;23.92;96552.84;5047541;28;20052;-76
2022/10/10 12:38:15;;;;;;;0.00;0.00;;;;;;;34.43;24.63;96544.63;5049487;28;20055;-75
2022/10/10 12:41:15;;;;;;;0.08;0.08;;;;;;;35.87;22.48;96548.88;5048675;28;20037;-74
2022/10/10 12:44:03;;;;;;;0.00;0.00;;;;;;;33.29;25.09;96561.31;5049057;28;20262;-75
2022/10/10 12:47:14;;;;;;;0.00;0.00;;;;;;;30.47;28.18;96560.00;5047743;28;20036;-76
2022/10/10 12:50:17;;;;;;;0.00;0.00;;;;;;;29.97;29.21;96564.06;5035179;28;20413;-75
2022/10/10 12:53:15;;;;;;;0.00;0.00;;;;;;;28.49;31.94;96555.50;5047298;28;20043;-73
2022/10/10 12:56:02;;;;;;;0.00;0.00;;;;;;;27.12;33.21;96547.19;5045726;28;20048;-74
2022/10/10 12:58:49;;;;;;;0.10;0.10;;;;;;;28.28;32.49;96555.81;5047950;28;20558;-72
2022/10/10 13:01:43;;;;;;;0.13;0.10;;;;;;;30.79;29.16;96546.63;5046392;28;20131;-75
2022/10/10 13:04:29;;;;;;;0.10;0.10;;;;;;;31.37;29.06;96541.69;5049035;28;20044;-75
2022/10/10 13:07:18;;;;;;;0.08;0.08;;;;;;;30.30;30.82;96551.53;5031997;28;20120;-73
2022/10/10 13:10:17;;;;;;;0.00;0.00;;;;;;;29.23;31.66;96553.38;5047500;28;20558;-75
2022/10/10 13:13:16;;;;;;;0.10;0.10;;;;;;;29.76;31.24;96541.66;5046786;28;20052;-75
2022/10/10 13:16:10;;;;;;;0.08;0.08;;;;;;;30.24;29.57;96545.53;5045453;28;20037;-75
2022/10/10 13:18:57;;;;;;;0.10;0.10;;;;;;;30.27;30.03;96546.72;5036761;28;20140;-73
2022/10/10 13:21:43;;;;;;;0.05;0.05;;;;;;;29.10;31.03;96544.47;5032168;28;20055;-76
2022/10/10 13:24:30;;;;;;;0.00;0.00;;;;;;;28.51;32.45;96548.47;5030495;28;20556;-74